createdAt,value
2023-04-14T00:05:40.426Z,21.42
2023-04-14T00:12:22.924Z,24.27
2023-04-14T00:19:05.116Z,27.15
2023-04-14T00:25:49.789Z,23.35
2023-04-14T00:32:32.070Z,24.33
2023-04-14T00:39:15.701Z,23.65
2023-04-14T00:45:58.878Z,22.08
2023-04-14T00:52:44.552Z,21.45
2023-04-14T00:59:28.866Z,21.13
2023-04-14T01:06:11.106Z,17.70
2023-04-14T01:13:20.118Z,21.77
2023-04-14T01:20:31.041Z,21.08
2023-04-14T01:27:28.191Z,20.83
2023-04-14T01:34:30.053Z,18.45
2023-04-14T01:41:16.857Z,16.63
2023-04-14T01:48:00.469Z,18.75
2023-04-14T01:54:43.486Z,19.40
2023-04-14T02:08:14.123Z,18.87
2023-04-14T02:14:58.475Z,19.58
2023-04-14T02:21:42.457Z,16.75
2023-04-14T02:28:31.752Z,19.13
2023-04-14T02:35:27.906Z,23.85
2023-04-14T02:42:15.864Z,25.33
2023-04-14T02:49:01.824Z,27.20
2023-04-14T02:55:47.898Z,23.48
2023-04-14T03:02:33.363Z,18.70
2023-04-14T03:09:22.737Z,16.33
2023-04-14T03:16:06.222Z,15.73
2023-04-14T03:23:06.315Z,14.80
2023-04-14T03:29:58.744Z,19.30
2023-04-14T03:36:44.372Z,34.25
2023-04-14T03:43:29.439Z,34.30
2023-04-14T03:50:21.237Z,24.40
2023-04-14T03:57:08.861Z,15.25
2023-04-14T04:03:56.248Z,14.65
2023-04-14T04:10:41.509Z,15.40
2023-04-14T04:17:26.625Z,15.73
2023-04-14T04:24:11.290Z,20.27
2023-04-14T04:30:56.501Z,16.50
2023-04-14T04:37:39.959Z,16.70
2023-04-14T04:44:22.308Z,21.00
2023-04-14T04:51:04.862Z,21.73
2023-04-14T04:57:47.272Z,18.63
2023-04-14T05:04:29.568Z,24.25
2023-04-14T05:11:12.111Z,21.15
2023-04-14T05:17:54.294Z,21.63
2023-04-14T05:24:36.598Z,20.08
2023-04-14T05:31:20.267Z,18.30
2023-04-14T05:38:02.447Z,16.90
2023-04-14T05:44:44.691Z,19.05
2023-04-14T05:51:27.930Z,18.23
2023-04-14T05:58:10.110Z,19.23
2023-04-14T06:04:52.576Z,21.40
2023-04-14T06:11:35.204Z,20.17
2023-04-14T06:18:17.422Z,24.73
2023-04-14T06:24:59.633Z,22.45
2023-04-14T06:31:41.881Z,21.27
2023-04-14T06:38:25.326Z,22.35
2023-04-14T06:45:08.381Z,35.65
2023-04-14T06:51:50.849Z,22.85
2023-04-14T06:58:33.467Z,25.02
2023-04-14T07:05:17.330Z,39.08
2023-04-14T07:11:59.822Z,20.00
2023-04-14T07:18:41.992Z,32.55
2023-04-14T07:25:24.201Z,38.00
2023-04-14T07:32:06.771Z,31.73
2023-04-14T07:38:51.841Z,24.35
2023-04-14T07:45:34.179Z,27.38
2023-04-14T07:52:16.720Z,24.67
2023-04-14T07:58:59.270Z,33.15
2023-04-14T08:05:42.292Z,31.17
2023-04-14T08:12:25.170Z,28.70
2023-04-14T08:19:07.769Z,24.10
2023-04-14T08:25:49.947Z,31.05
2023-04-14T08:32:32.127Z,45.03
2023-04-14T08:39:14.897Z,27.58
2023-04-14T08:46:00.400Z,24.00
2023-04-14T08:52:45.090Z,22.70
2023-04-14T08:59:28.813Z,21.95
2023-04-14T09:06:12.304Z,19.38
2023-04-14T09:12:55.854Z,16.33
2023-04-14T09:20:35.182Z,18.73
2023-04-14T09:26:41.259Z,20.90
2023-04-14T09:33:23.957Z,20.77
2023-04-14T09:40:08.319Z,16.23
2023-04-14T09:47:05.703Z,19.27
2023-04-14T09:53:48.684Z,22.98
2023-04-14T10:00:32.308Z,12.95
2023-04-14T10:07:18.893Z,13.48
2023-04-14T10:14:06.740Z,13.32
2023-04-14T10:20:49.609Z,15.23
2023-04-14T10:27:33.618Z,15.45
2023-04-14T10:34:16.289Z,16.08
2023-04-14T10:41:00.087Z,16.42
2023-04-14T10:47:42.386Z,16.07
2023-04-14T10:54:24.525Z,14.20
2023-04-14T11:01:31.826Z,15.00
2023-04-14T11:08:19.269Z,13.48
2023-04-14T11:15:05.534Z,26.58
2023-04-14T11:21:53.661Z,18.17
2023-04-14T11:28:42.424Z,18.67
2023-04-14T11:35:29.332Z,19.83
2023-04-14T11:42:13.308Z,15.90
2023-04-14T11:48:56.767Z,15.52
2023-04-14T11:55:52.444Z,16.47
2023-04-14T12:02:36.018Z,18.65
2023-04-14T12:09:18.234Z,14.47
2023-04-14T12:16:00.732Z,15.32
2023-04-14T12:22:43.007Z,19.10
2023-04-14T12:29:25.725Z,22.73
2023-04-14T12:36:12.458Z,14.88
2023-04-14T12:42:56.536Z,13.88
2023-04-14T12:49:39.254Z,13.93
2023-04-14T12:56:22.589Z,11.88
2023-04-14T13:03:04.995Z,15.73
2023-04-14T13:09:47.146Z,16.77
2023-04-14T13:16:29.559Z,18.75
2023-04-14T13:23:11.935Z,13.52
2023-04-14T13:29:54.224Z,13.18
2023-04-14T13:36:36.916Z,12.32
2023-04-14T13:43:19.218Z,12.73
2023-04-14T13:50:01.673Z,17.98
2023-04-14T13:56:43.825Z,10.77
2023-04-14T14:03:27.380Z,16.00
2023-04-14T14:10:11.886Z,17.67
2023-04-14T14:16:55.150Z,20.83
2023-04-14T14:23:37.489Z,19.50
2023-04-14T14:30:19.760Z,17.50
2023-04-14T14:37:02.085Z,10.48
2023-04-14T14:43:44.309Z,14.93
2023-04-14T14:50:26.669Z,17.55
2023-04-14T14:57:08.926Z,9.80
2023-04-14T15:03:51.132Z,13.63
2023-04-14T15:10:33.404Z,14.68
2023-04-14T15:17:16.763Z,12.02
2023-04-14T15:23:59.750Z,11.93
2023-04-14T15:30:42.159Z,14.53
2023-04-14T15:37:25.557Z,13.75
2023-04-14T15:44:07.712Z,14.83
2023-04-14T15:50:49.913Z,17.00
2023-04-14T15:57:32.228Z,13.52
2023-04-14T16:04:14.494Z,14.02
2023-04-14T16:10:57.009Z,11.95
2023-04-14T16:17:39.465Z,11.77
2023-04-14T16:24:21.685Z,15.27
2023-04-14T16:31:04.026Z,16.25
2023-04-14T16:37:46.183Z,23.52
2023-04-14T16:44:28.291Z,17.00
2023-04-14T16:51:11.301Z,17.15
2023-04-14T16:57:53.452Z,13.05
2023-04-14T17:04:36.011Z,14.48
2023-04-14T17:11:18.309Z,17.42
2023-04-14T17:18:00.939Z,19.63
2023-04-14T17:24:44.259Z,42.80
2023-04-14T17:31:27.473Z,23.20
2023-04-14T17:38:10.655Z,20.92
2023-04-14T17:44:52.988Z,21.13
2023-04-14T17:51:35.333Z,18.85
2023-04-14T17:58:17.516Z,21.73
2023-04-14T18:04:59.723Z,18.65
2023-04-14T18:11:42.037Z,18.95
2023-04-14T18:18:39.935Z,16.90
2023-04-14T18:25:22.249Z,13.07
2023-04-14T18:32:04.558Z,13.63
2023-04-14T18:38:46.729Z,12.25
2023-04-14T18:45:28.899Z,17.80
2023-04-14T18:52:11.471Z,14.90
2023-04-14T18:58:55.845Z,21.58
2023-04-14T19:05:38.244Z,17.98
2023-04-14T19:12:28.224Z,16.38
2023-04-14T19:19:11.043Z,23.50
2023-04-14T19:25:54.169Z,21.92
2023-04-14T19:32:36.878Z,19.20
2023-04-14T19:39:20.797Z,17.30
2023-04-14T19:46:05.155Z,21.03
2023-04-14T19:52:49.810Z,21.90
2023-04-14T19:59:33.502Z,21.85
2023-04-14T20:06:16.355Z,23.83
2023-04-14T20:12:58.696Z,17.90
2023-04-14T20:19:41.143Z,19.35
2023-04-14T20:26:23.410Z,21.00
2023-04-14T20:33:05.948Z,21.60
2023-04-14T20:39:49.696Z,22.65
2023-04-14T20:46:32.029Z,13.98
2023-04-14T20:53:14.171Z,17.85
2023-04-14T20:59:56.265Z,19.02
2023-04-14T21:06:38.628Z,19.38
2023-04-14T21:15:42.361Z,21.27
2023-04-14T21:20:24.230Z,22.73
2023-04-14T21:27:06.617Z,27.05
2023-04-14T21:33:48.816Z,20.15
2023-04-14T21:40:31.074Z,21.20
2023-04-14T21:47:13.307Z,20.48
2023-04-14T21:53:55.857Z,25.27
2023-04-14T22:00:38.076Z,22.35
2023-04-14T22:07:20.215Z,23.23
2023-04-14T22:14:03.308Z,20.42
2023-04-14T22:20:45.657Z,21.90
2023-04-14T22:27:27.870Z,23.73
2023-04-14T22:34:10.084Z,20.58
2023-04-14T22:40:52.759Z,24.27
2023-04-14T22:47:35.308Z,24.00
2023-04-14T22:54:17.519Z,23.20
2023-04-14T23:01:02.759Z,22.13
2023-04-14T23:07:49.525Z,19.88
2023-04-14T23:14:32.400Z,21.02
2023-04-14T23:21:15.568Z,21.50
2023-04-14T23:27:58.329Z,21.48
2023-04-14T23:34:40.679Z,19.42
2023-04-14T23:41:24.313Z,19.52
2023-04-14T23:48:07.467Z,16.45
2023-04-14T23:54:49.658Z,21.23
